sensor_id;sensor_type;location;lat;lon;timestamp;P1;durP1;ratioP1;P2;durP2;ratioP2
12861;SDS011;6499;66.348;14.134;2023-07-02T00:02:13;2.20;;;2.00;;
12861;SDS011;6499;66.348;14.134;2023-07-02T00:04:39;2.20;;;2.00;;
12861;SDS011;6499;66.348;14.134;2023-07-02T00:07:06;2.40;;;2.00;;
12861;SDS011;6499;66.348;14.134;2023-07-02T00:09:34;1.90;;;1.80;;
12861;SDS011;6499;66.348;14.134;2023-07-02T00:12:00;1.93;;;1.73;;
12861;SDS011;6499;66.348;14.134;2023-07-02T00:14:27;2.00;;;1.90;;
12861;SDS011;6499;66.348;14.134;2023-07-02T00:16:53;4.00;;;1.80;;
12861;SDS011;6499;66.348;14.134;2023-07-02T00:19:20;2.27;;;1.90;;
12861;SDS011;6499;66.348;14.134;2023-07-02T00:21:46;2.57;;;1.87;;
12861;SDS011;6499;66.348;14.134;2023-07-02T00:24:13;1.93;;;1.83;;
12861;SDS011;6499;66.348;14.134;2023-07-02T00:26:42;2.20;;;2.00;;
12861;SDS011;6499;66.348;14.134;2023-07-02T00:29:08;2.20;;;1.63;;
12861;SDS011;6499;66.348;14.134;2023-07-02T00:31:35;1.90;;;1.80;;
12861;SDS011;6499;66.348;14.134;2023-07-02T00:34:01;2.23;;;1.90;;
12861;SDS011;6499;66.348;14.134;2023-07-02T00:36:29;1.97;;;1.70;;
12861;SDS011;6499;66.348;14.134;2023-07-02T00:38:56;2.10;;;1.90;;
12861;SDS011;6499;66.348;14.134;2023-07-02T00:41:22;1.97;;;1.70;;
12861;SDS011;6499;66.348;14.134;2023-07-02T00:43:50;2.53;;;1.83;;
12861;SDS011;6499;66.348;14.134;2023-07-02T00:46:19;1.97;;;1.57;;
12861;SDS011;6499;66.348;14.134;2023-07-02T00:48:47;2.03;;;1.60;;
12861;SDS011;6499;66.348;14.134;2023-07-02T00:51:14;2.20;;;2.00;;
12861;SDS011;6499;66.348;14.134;2023-07-02T00:53:41;1.50;;;1.40;;
12861;SDS011;6499;66.348;14.134;2023-07-02T00:56:08;1.57;;;1.47;;
12861;SDS011;6499;66.348;14.134;2023-07-02T00:58:34;2.27;;;1.60;;
12861;SDS011;6499;66.348;14.134;2023-07-02T01:01:05;2.77;;;1.60;;
12861;SDS011;6499;66.348;14.134;2023-07-02T01:03:32;1.67;;;1.53;;
12861;SDS011;6499;66.348;14.134;2023-07-02T01:06:02;2.50;;;1.80;;
12861;SDS011;6499;66.348;14.134;2023-07-02T01:08:29;1.90;;;1.70;;
12861;SDS011;6499;66.348;14.134;2023-07-02T01:10:55;2.00;;;1.80;;
12861;SDS011;6499;66.348;14.134;2023-07-02T01:13:22;1.77;;;1.67;;
12861;SDS011;6499;66.348;14.134;2023-07-02T01:15:50;2.00;;;1.50;;
12861;SDS011;6499;66.348;14.134;2023-07-02T01:18:18;1.70;;;1.60;;
12861;SDS011;6499;66.348;14.134;2023-07-02T01:20:46;1.73;;;1.63;;
12861;SDS011;6499;66.348;14.134;2023-07-02T01:23:13;1.70;;;1.60;;
12861;SDS011;6499;66.348;14.134;2023-07-02T01:25:40;2.17;;;1.60;;
12861;SDS011;6499;66.348;14.134;2023-07-02T01:28:06;2.07;;;1.77;;
12861;SDS011;6499;66.348;14.134;2023-07-02T01:30:33;1.67;;;1.57;;
12861;SDS011;6499;66.348;14.134;2023-07-02T01:32:59;1.97;;;1.80;;
12861;SDS011;6499;66.348;14.134;2023-07-02T01:35:26;1.97;;;1.60;;
12861;SDS011;6499;66.348;14.134;2023-07-02T01:37:54;2.40;;;1.60;;
12861;SDS011;6499;66.348;14.134;2023-07-02T01:40:20;2.00;;;1.20;;
12861;SDS011;6499;66.348;14.134;2023-07-02T01:42:47;1.67;;;1.57;;
12861;SDS011;6499;66.348;14.134;2023-07-02T01:45:13;1.70;;;1.60;;
12861;SDS011;6499;66.348;14.134;2023-07-02T01:47:40;2.13;;;1.57;;
12861;SDS011;6499;66.348;14.134;2023-07-02T01:50:07;1.67;;;1.57;;
12861;SDS011;6499;66.348;14.134;2023-07-02T01:52:33;1.73;;;1.63;;
12861;SDS011;6499;66.348;14.134;2023-07-02T01:55:02;1.77;;;1.67;;
12861;SDS011;6499;66.348;14.134;2023-07-02T01:57:28;2.90;;;1.67;;
12861;SDS011;6499;66.348;14.134;2023-07-02T01:59:56;1.63;;;1.53;;
12861;SDS011;6499;66.348;14.134;2023-07-02T02:02:22;1.80;;;1.53;;
12861;SDS011;6499;66.348;14.134;2023-07-02T02:04:49;1.97;;;1.70;;
12861;SDS011;6499;66.348;14.134;2023-07-02T02:07:15;2.13;;;1.60;;
12861;SDS011;6499;66.348;14.134;2023-07-02T02:09:42;1.87;;;1.43;;
12861;SDS011;6499;66.348;14.134;2023-07-02T02:12:10;1.53;;;1.43;;
12861;SDS011;6499;66.348;14.134;2023-07-02T02:14:38;4.40;;;1.67;;
12861;SDS011;6499;66.348;14.134;2023-07-02T02:17:04;1.60;;;1.50;;
12861;SDS011;6499;66.348;14.134;2023-07-02T02:19:31;1.80;;;1.70;;
12861;SDS011;6499;66.348;14.134;2023-07-02T02:21:58;1.90;;;1.63;;
12861;SDS011;6499;66.348;14.134;2023-07-02T02:24:24;1.67;;;1.57;;
12861;SDS011;6499;66.348;14.134;2023-07-02T02:26:51;1.70;;;1.60;;
12861;SDS011;6499;66.348;14.134;2023-07-02T02:29:19;2.40;;;1.60;;
12861;SDS011;6499;66.348;14.134;2023-07-02T02:31:45;1.60;;;1.50;;
12861;SDS011;6499;66.348;14.134;2023-07-02T02:34:12;1.80;;;1.70;;
12861;SDS011;6499;66.348;14.134;2023-07-02T02:36:38;1.40;;;1.30;;
12861;SDS011;6499;66.348;14.134;2023-07-02T02:39:05;1.57;;;1.47;;
12861;SDS011;6499;66.348;14.134;2023-07-02T02:41:31;1.50;;;1.40;;
12861;SDS011;6499;66.348;14.134;2023-07-02T02:43:58;1.57;;;1.47;;
12861;SDS011;6499;66.348;14.134;2023-07-02T02:46:26;1.63;;;1.40;;
12861;SDS011;6499;66.348;14.134;2023-07-02T02:48:52;1.43;;;1.33;;
12861;SDS011;6499;66.348;14.134;2023-07-02T02:51:19;1.63;;;1.50;;
12861;SDS011;6499;66.348;14.134;2023-07-02T02:53:45;2.07;;;1.20;;
12861;SDS011;6499;66.348;14.134;2023-07-02T02:56:12;1.67;;;1.57;;
12861;SDS011;6499;66.348;14.134;2023-07-02T02:58:39;1.50;;;1.40;;
12861;SDS011;6499;66.348;14.134;2023-07-02T03:01:05;1.20;;;1.10;;
12861;SDS011;6499;66.348;14.134;2023-07-02T03:03:36;1.80;;;1.50;;
12861;SDS011;6499;66.348;14.134;2023-07-02T03:06:04;1.40;;;1.30;;
12861;SDS011;6499;66.348;14.134;2023-07-02T03:08:30;2.40;;;1.43;;
12861;SDS011;6499;66.348;14.134;2023-07-02T03:10:57;3.33;;;1.40;;
12861;SDS011;6499;66.348;14.134;2023-07-02T03:13:24;1.40;;;1.30;;
12861;SDS011;6499;66.348;14.134;2023-07-02T03:15:50;2.67;;;1.30;;
12861;SDS011;6499;66.348;14.134;2023-07-02T03:18:17;1.33;;;1.23;;
12861;SDS011;6499;66.348;14.134;2023-07-02T03:20:44;2.20;;;1.30;;
12861;SDS011;6499;66.348;14.134;2023-07-02T03:23:11;1.43;;;1.13;;
12861;SDS011;6499;66.348;14.134;2023-07-02T03:25:37;1.37;;;1.27;;
12861;SDS011;6499;66.348;14.134;2023-07-02T03:28:04;1.43;;;1.30;;
12861;SDS011;6499;66.348;14.134;2023-07-02T03:30:30;1.70;;;1.60;;
12861;SDS011;6499;66.348;14.134;2023-07-02T03:32:57;1.73;;;1.57;;
12861;SDS011;6499;66.348;14.134;2023-07-02T03:35:24;2.10;;;1.30;;
12861;SDS011;6499;66.348;14.134;2023-07-02T03:37:52;1.60;;;1.50;;
12861;SDS011;6499;66.348;14.134;2023-07-02T03:40:18;1.30;;;1.20;;
12861;SDS011;6499;66.348;14.134;2023-07-02T03:42:44;1.63;;;1.30;;
12861;SDS011;6499;66.348;14.134;2023-07-02T03:45:11;1.73;;;1.10;;
12861;SDS011;6499;66.348;14.134;2023-07-02T03:47:38;1.30;;;1.20;;
12861;SDS011;6499;66.348;14.134;2023-07-02T03:50:04;1.40;;;1.30;;
12861;SDS011;6499;66.348;14.134;2023-07-02T03:52:31;1.30;;;1.20;;
12861;SDS011;6499;66.348;14.134;2023-07-02T03:54:59;1.37;;;1.27;;
12861;SDS011;6499;66.348;14.134;2023-07-02T03:57:26;1.70;;;1.20;;
12861;SDS011;6499;66.348;14.134;2023-07-02T03:59:52;1.50;;;1.40;;
12861;SDS011;6499;66.348;14.134;2023-07-02T04:02:19;1.57;;;1.43;;
12861;SDS011;6499;66.348;14.134;2023-07-02T04:04:45;1.70;;;1.30;;
12861;SDS011;6499;66.348;14.134;2023-07-02T04:07:12;1.50;;;1.40;;
12861;SDS011;6499;66.348;14.134;2023-07-02T04:09:39;4.03;;;1.37;;
12861;SDS011;6499;66.348;14.134;2023-07-02T04:12:07;1.50;;;1.40;;
12861;SDS011;6499;66.348;14.134;2023-07-02T04:14:34;1.13;;;1.10;;
12861;SDS011;6499;66.348;14.134;2023-07-02T04:17:01;2.77;;;1.40;;
12861;SDS011;6499;66.348;14.134;2023-07-02T04:19:28;1.40;;;1.30;;
12861;SDS011;6499;66.348;14.134;2023-07-02T04:21:54;3.93;;;1.57;;
12861;SDS011;6499;66.348;14.134;2023-07-02T04:24:21;1.67;;;1.23;;
12861;SDS011;6499;66.348;14.134;2023-07-02T04:26:47;2.20;;;1.30;;
12861;SDS011;6499;66.348;14.134;2023-07-02T04:29:15;1.60;;;1.50;;
12861;SDS011;6499;66.348;14.134;2023-07-02T04:31:42;2.43;;;1.20;;
12861;SDS011;6499;66.348;14.134;2023-07-02T04:34:08;1.20;;;1.10;;
12861;SDS011;6499;66.348;14.134;2023-07-02T04:36:35;1.40;;;1.30;;
12861;SDS011;6499;66.348;14.134;2023-07-02T04:39:01;1.10;;;1.00;;
12861;SDS011;6499;66.348;14.134;2023-07-02T04:41:28;1.30;;;1.20;;
12861;SDS011;6499;66.348;14.134;2023-07-02T04:43:55;1.33;;;1.23;;
12861;SDS011;6499;66.348;14.134;2023-07-02T04:46:23;1.00;;;1.00;;
12861;SDS011;6499;66.348;14.134;2023-07-02T04:48:49;1.30;;;1.20;;
12861;SDS011;6499;66.348;14.134;2023-07-02T04:51:16;2.60;;;1.30;;
12861;SDS011;6499;66.348;14.134;2023-07-02T04:53:42;1.40;;;1.30;;
12861;SDS011;6499;66.348;14.134;2023-07-02T04:56:09;1.10;;;1.00;;
12861;SDS011;6499;66.348;14.134;2023-07-02T04:58:35;1.33;;;1.00;;
12861;SDS011;6499;66.348;14.134;2023-07-02T05:01:02;1.90;;;1.10;;
12861;SDS011;6499;66.348;14.134;2023-07-02T05:03:30;1.73;;;1.20;;
12861;SDS011;6499;66.348;14.134;2023-07-02T05:05:56;1.23;;;1.10;;
12861;SDS011;6499;66.348;14.134;2023-07-02T05:08:23;1.27;;;1.17;;
12861;SDS011;6499;66.348;14.134;2023-07-02T05:10:49;1.30;;;1.20;;
12861;SDS011;6499;66.348;14.134;2023-07-02T05:13:16;1.40;;;1.30;;
12861;SDS011;6499;66.348;14.134;2023-07-02T05:15:42;2.30;;;1.20;;
12861;SDS011;6499;66.348;14.134;2023-07-02T05:18:09;1.60;;;1.50;;
12861;SDS011;6499;66.348;14.134;2023-07-02T05:20:37;1.30;;;1.20;;
12861;SDS011;6499;66.348;14.134;2023-07-02T05:23:04;2.57;;;1.20;;
12861;SDS011;6499;66.348;14.134;2023-07-02T05:25:30;1.50;;;1.40;;
12861;SDS011;6499;66.348;14.134;2023-07-02T05:27:57;1.23;;;1.17;;
12861;SDS011;6499;66.348;14.134;2023-07-02T05:30:24;1.30;;;1.10;;
12861;SDS011;6499;66.348;14.134;2023-07-02T05:32:50;1.40;;;1.30;;
12861;SDS011;6499;66.348;14.134;2023-07-02T05:35:17;1.33;;;1.23;;
12861;SDS011;6499;66.348;14.134;2023-07-02T05:37:45;1.77;;;1.10;;
12861;SDS011;6499;66.348;14.134;2023-07-02T05:40:11;1.47;;;1.33;;
12861;SDS011;6499;66.348;14.134;2023-07-02T05:42:38;1.33;;;1.23;;
12861;SDS011;6499;66.348;14.134;2023-07-02T05:45:05;1.40;;;1.23;;
12861;SDS011;6499;66.348;14.134;2023-07-02T05:47:31;1.50;;;1.30;;
12861;SDS011;6499;66.348;14.134;2023-07-02T05:49:58;1.00;;;1.00;;
12861;SDS011;6499;66.348;14.134;2023-07-02T05:52:24;1.33;;;1.23;;
12861;SDS011;6499;66.348;14.134;2023-07-02T05:54:52;1.33;;;1.23;;
12861;SDS011;6499;66.348;14.134;2023-07-02T05:57:18;1.40;;;1.30;;
12861;SDS011;6499;66.348;14.134;2023-07-02T05:59:45;1.87;;;1.27;;
12861;SDS011;6499;66.348;14.134;2023-07-02T06:02:11;1.30;;;1.20;;
12861;SDS011;6499;66.348;14.134;2023-07-02T06:04:38;1.37;;;1.27;;
12861;SDS011;6499;66.348;14.134;2023-07-02T06:07:04;2.00;;;1.30;;
12861;SDS011;6499;66.348;14.134;2023-07-02T06:09:31;1.27;;;1.17;;
12861;SDS011;6499;66.348;14.134;2023-07-02T06:11:59;1.30;;;1.20;;
12861;SDS011;6499;66.348;14.134;2023-07-02T06:14:25;1.20;;;1.10;;
12861;SDS011;6499;66.348;14.134;2023-07-02T06:16:52;2.70;;;1.40;;
12861;SDS011;6499;66.348;14.134;2023-07-02T06:19:22;1.67;;;1.57;;
12861;SDS011;6499;66.348;14.134;2023-07-02T06:21:48;1.77;;;1.07;;
12861;SDS011;6499;66.348;14.134;2023-07-02T06:24:15;2.67;;;1.53;;
12861;SDS011;6499;66.348;14.134;2023-07-02T06:26:41;1.77;;;1.33;;
12861;SDS011;6499;66.348;14.134;2023-07-02T06:29:09;1.53;;;1.40;;
12861;SDS011;6499;66.348;14.134;2023-07-02T06:31:36;1.63;;;1.47;;
12861;SDS011;6499;66.348;14.134;2023-07-02T06:34:02;1.50;;;1.40;;
12861;SDS011;6499;66.348;14.134;2023-07-02T06:36:29;1.73;;;1.30;;
12861;SDS011;6499;66.348;14.134;2023-07-02T06:38:55;1.93;;;1.33;;
12861;SDS011;6499;66.348;14.134;2023-07-02T06:41:22;1.50;;;1.40;;
12861;SDS011;6499;66.348;14.134;2023-07-02T06:43:49;1.57;;;1.43;;
12861;SDS011;6499;66.348;14.134;2023-07-02T06:46:17;1.57;;;1.47;;
12861;SDS011;6499;66.348;14.134;2023-07-02T06:48:43;1.70;;;1.60;;
12861;SDS011;6499;66.348;14.134;2023-07-02T06:51:10;2.00;;;1.50;;
12861;SDS011;6499;66.348;14.134;2023-07-02T06:53:39;1.60;;;1.40;;
12861;SDS011;6499;66.348;14.134;2023-07-02T06:56:07;1.73;;;1.63;;
12861;SDS011;6499;66.348;14.134;2023-07-02T06:58:33;1.53;;;1.43;;
12861;SDS011;6499;66.348;14.134;2023-07-02T07:01:00;1.67;;;1.57;;
12861;SDS011;6499;66.348;14.134;2023-07-02T07:03:28;3.90;;;1.50;;
12861;SDS011;6499;66.348;14.134;2023-07-02T07:05:55;1.80;;;1.70;;
12861;SDS011;6499;66.348;14.134;2023-07-02T07:08:21;1.63;;;1.53;;
12861;SDS011;6499;66.348;14.134;2023-07-02T07:10:49;1.63;;;1.40;;
12861;SDS011;6499;66.348;14.134;2023-07-02T07:13:16;1.50;;;1.40;;
12861;SDS011;6499;66.348;14.134;2023-07-02T07:15:42;1.63;;;1.53;;
12861;SDS011;6499;66.348;14.134;2023-07-02T07:18:09;1.60;;;1.50;;
12861;SDS011;6499;66.348;14.134;2023-07-02T07:20:38;1.47;;;1.37;;
12861;SDS011;6499;66.348;14.134;2023-07-02T07:23:05;2.17;;;1.50;;
12861;SDS011;6499;66.348;14.134;2023-07-02T07:25:31;2.33;;;2.17;;
12861;SDS011;6499;66.348;14.134;2023-07-02T07:27:59;1.60;;;1.40;;
12861;SDS011;6499;66.348;14.134;2023-07-02T07:30:26;1.77;;;1.40;;
12861;SDS011;6499;66.348;14.134;2023-07-02T07:32:52;1.37;;;1.23;;
12861;SDS011;6499;66.348;14.134;2023-07-02T07:35:20;1.57;;;1.47;;
12861;SDS011;6499;66.348;14.134;2023-07-02T07:37:48;1.50;;;1.37;;
12861;SDS011;6499;66.348;14.134;2023-07-02T07:40:14;1.70;;;1.60;;
12861;SDS011;6499;66.348;14.134;2023-07-02T07:42:41;1.30;;;1.20;;
12861;SDS011;6499;66.348;14.134;2023-07-02T07:45:08;1.50;;;1.40;;
12861;SDS011;6499;66.348;14.134;2023-07-02T07:47:35;1.40;;;1.30;;
12861;SDS011;6499;66.348;14.134;2023-07-02T07:50:02;1.50;;;1.40;;
12861;SDS011;6499;66.348;14.134;2023-07-02T07:52:33;2.30;;;1.27;;
12861;SDS011;6499;66.348;14.134;2023-07-02T07:55:02;1.43;;;1.33;;
12861;SDS011;6499;66.348;14.134;2023-07-02T07:57:29;1.73;;;1.30;;
12861;SDS011;6499;66.348;14.134;2023-07-02T07:59:55;1.87;;;1.30;;
12861;SDS011;6499;66.348;14.134;2023-07-02T08:02:22;1.53;;;1.30;;
12861;SDS011;6499;66.348;14.134;2023-07-02T08:04:49;1.70;;;1.60;;
12861;SDS011;6499;66.348;14.134;2023-07-02T08:07:15;1.83;;;1.73;;
12861;SDS011;6499;66.348;14.134;2023-07-02T08:09:42;2.20;;;2.10;;
12861;SDS011;6499;66.348;14.134;2023-07-02T08:12:10;1.53;;;1.43;;
12861;SDS011;6499;66.348;14.134;2023-07-02T08:14:36;1.30;;;1.20;;
12861;SDS011;6499;66.348;14.134;2023-07-02T08:17:03;2.70;;;2.50;;
12861;SDS011;6499;66.348;14.134;2023-07-02T08:19:30;2.00;;;1.90;;
12861;SDS011;6499;66.348;14.134;2023-07-02T08:21:56;2.00;;;1.77;;
12861;SDS011;6499;66.348;14.134;2023-07-02T08:24:23;1.60;;;1.50;;
12861;SDS011;6499;66.348;14.134;2023-07-02T08:26:49;1.37;;;1.27;;
12861;SDS011;6499;66.348;14.134;2023-07-02T08:29:17;1.43;;;1.33;;
12861;SDS011;6499;66.348;14.134;2023-07-02T08:31:44;1.40;;;1.30;;
12861;SDS011;6499;66.348;14.134;2023-07-02T08:34:10;2.13;;;1.20;;
12861;SDS011;6499;66.348;14.134;2023-07-02T08:36:37;1.40;;;1.30;;
12861;SDS011;6499;66.348;14.134;2023-07-02T08:39:03;1.73;;;1.63;;
12861;SDS011;6499;66.348;14.134;2023-07-02T08:41:30;1.90;;;1.80;;
12861;SDS011;6499;66.348;14.134;2023-07-02T08:43:57;1.97;;;1.40;;
12861;SDS011;6499;66.348;14.134;2023-07-02T08:46:26;1.33;;;1.23;;
12861;SDS011;6499;66.348;14.134;2023-07-02T08:48:52;1.67;;;1.10;;
12861;SDS011;6499;66.348;14.134;2023-07-02T08:51:19;1.40;;;1.30;;
12861;SDS011;6499;66.348;14.134;2023-07-02T08:53:46;1.30;;;1.20;;
12861;SDS011;6499;66.348;14.134;2023-07-02T08:56:12;1.17;;;1.10;;
12861;SDS011;6499;66.348;14.134;2023-07-02T08:58:38;1.40;;;1.13;;
12861;SDS011;6499;66.348;14.134;2023-07-02T09:01:06;2.20;;;1.30;;
12861;SDS011;6499;66.348;14.134;2023-07-02T09:03:34;1.40;;;1.30;;
12861;SDS011;6499;66.348;14.134;2023-07-02T09:06:02;1.30;;;1.20;;
12861;SDS011;6499;66.348;14.134;2023-07-02T09:08:28;1.40;;;1.30;;
12861;SDS011;6499;66.348;14.134;2023-07-02T09:11:04;1.40;;;1.30;;
12861;SDS011;6499;66.348;14.134;2023-07-02T09:13:31;1.40;;;1.30;;
12861;SDS011;6499;66.348;14.134;2023-07-02T09:15:58;1.43;;;1.33;;
12861;SDS011;6499;66.348;14.134;2023-07-02T09:18:24;1.57;;;1.30;;
12861;SDS011;6499;66.348;14.134;2023-07-02T09:20:53;1.37;;;1.27;;
12861;SDS011;6499;66.348;14.134;2023-07-02T09:23:20;1.60;;;1.50;;
12861;SDS011;6499;66.348;14.134;2023-07-02T09:25:47;2.27;;;2.07;;
12861;SDS011;6499;66.348;14.134;2023-07-02T09:28:14;2.30;;;2.10;;
12861;SDS011;6499;66.348;14.134;2023-07-02T09:30:48;1.70;;;1.60;;
12861;SDS011;6499;66.348;14.134;2023-07-02T09:33:15;2.00;;;1.90;;
12861;SDS011;6499;66.348;14.134;2023-07-02T09:35:42;1.47;;;1.37;;
12861;SDS011;6499;66.348;14.134;2023-07-02T09:38:10;1.30;;;1.20;;
12861;SDS011;6499;66.348;14.134;2023-07-02T09:40:37;1.63;;;1.53;;
12861;SDS011;6499;66.348;14.134;2023-07-02T09:43:10;1.47;;;1.37;;
12861;SDS011;6499;66.348;14.134;2023-07-02T09:45:37;1.90;;;1.80;;
12861;SDS011;6499;66.348;14.134;2023-07-02T09:48:04;1.70;;;1.60;;
12861;SDS011;6499;66.348;14.134;2023-07-02T09:50:32;1.20;;;1.10;;
12861;SDS011;6499;66.348;14.134;2023-07-02T09:53:00;1.47;;;1.37;;
12861;SDS011;6499;66.348;14.134;2023-07-02T09:55:28;1.50;;;1.40;;
12861;SDS011;6499;66.348;14.134;2023-07-02T09:57:55;1.53;;;1.27;;
12861;SDS011;6499;66.348;14.134;2023-07-02T10:00:21;1.20;;;1.10;;
12861;SDS011;6499;66.348;14.134;2023-07-02T10:02:48;1.00;;;1.00;;
12861;SDS011;6499;66.348;14.134;2023-07-02T10:05:24;1.30;;;1.20;;
12861;SDS011;6499;66.348;14.134;2023-07-02T10:07:51;1.10;;;1.10;;
12861;SDS011;6499;66.348;14.134;2023-07-02T10:10:25;1.40;;;1.27;;
12861;SDS011;6499;66.348;14.134;2023-07-02T10:12:53;1.00;;;1.00;;
12861;SDS011;6499;66.348;14.134;2023-07-02T10:15:23;1.37;;;1.27;;
12861;SDS011;6499;66.348;14.134;2023-07-02T10:17:54;1.23;;;1.07;;
12861;SDS011;6499;66.348;14.134;2023-07-02T10:20:30;1.77;;;1.30;;
12861;SDS011;6499;66.348;14.134;2023-07-02T10:22:57;2.30;;;1.40;;
12861;SDS011;6499;66.348;14.134;2023-07-02T10:25:24;1.67;;;1.10;;
12861;SDS011;6499;66.348;14.134;2023-07-02T10:27:52;1.50;;;1.40;;
12861;SDS011;6499;66.348;14.134;2023-07-02T10:30:29;1.57;;;1.07;;
12861;SDS011;6499;66.348;14.134;2023-07-02T10:33:06;1.20;;;1.10;;
12861;SDS011;6499;66.348;14.134;2023-07-02T10:35:32;1.00;;;1.00;;
12861;SDS011;6499;66.348;14.134;2023-07-02T10:37:59;1.33;;;1.10;;
12861;SDS011;6499;66.348;14.134;2023-07-02T10:40:26;1.33;;;1.03;;
12861;SDS011;6499;66.348;14.134;2023-07-02T10:42:54;1.00;;;0.90;;
12861;SDS011;6499;66.348;14.134;2023-07-02T10:45:21;1.77;;;1.23;;
12861;SDS011;6499;66.348;14.134;2023-07-02T10:47:57;1.30;;;0.97;;
12861;SDS011;6499;66.348;14.134;2023-07-02T10:50:23;1.93;;;1.43;;
12861;SDS011;6499;66.348;14.134;2023-07-02T10:52:52;2.10;;;1.10;;
12861;SDS011;6499;66.348;14.134;2023-07-02T10:55:19;1.60;;;0.80;;
12861;SDS011;6499;66.348;14.134;2023-07-02T10:57:46;0.93;;;0.90;;
12861;SDS011;6499;66.348;14.134;2023-07-02T11:00:14;1.07;;;0.90;;
12861;SDS011;6499;66.348;14.134;2023-07-02T11:02:41;1.30;;;0.90;;
12861;SDS011;6499;66.348;14.134;2023-07-02T11:05:07;1.90;;;1.00;;
12861;SDS011;6499;66.348;14.134;2023-07-02T11:07:37;1.40;;;0.90;;
12861;SDS011;6499;66.348;14.134;2023-07-02T11:10:03;1.07;;;0.97;;
12861;SDS011;6499;66.348;14.134;2023-07-02T11:12:30;1.33;;;0.83;;
12861;SDS011;6499;66.348;14.134;2023-07-02T11:15:06;1.17;;;1.07;;
12861;SDS011;6499;66.348;14.134;2023-07-02T11:17:34;1.00;;;0.90;;
12861;SDS011;6499;66.348;14.134;2023-07-02T11:20:01;0.80;;;0.80;;
12861;SDS011;6499;66.348;14.134;2023-07-02T11:22:33;0.80;;;0.80;;
12861;SDS011;6499;66.348;14.134;2023-07-02T11:25:08;1.97;;;1.20;;
12861;SDS011;6499;66.348;14.134;2023-07-02T11:27:35;1.93;;;1.00;;
12861;SDS011;6499;66.348;14.134;2023-07-02T11:30:01;1.07;;;0.97;;
12861;SDS011;6499;66.348;14.134;2023-07-02T11:32:28;0.90;;;0.90;;
12861;SDS011;6499;66.348;14.134;2023-07-02T11:34:56;1.00;;;0.90;;
12861;SDS011;6499;66.348;14.134;2023-07-02T11:37:22;1.30;;;1.10;;
12861;SDS011;6499;66.348;14.134;2023-07-02T11:39:49;0.70;;;0.70;;
12861;SDS011;6499;66.348;14.134;2023-07-02T11:42:16;1.60;;;1.10;;
12861;SDS011;6499;66.348;14.134;2023-07-02T11:44:42;1.80;;;1.00;;
12861;SDS011;6499;66.348;14.134;2023-07-02T11:47:09;0.97;;;0.90;;
12861;SDS011;6499;66.348;14.134;2023-07-02T11:49:35;1.27;;;0.90;;
12861;SDS011;6499;66.348;14.134;2023-07-02T11:52:04;0.80;;;0.80;;
12861;SDS011;6499;66.348;14.134;2023-07-02T11:54:30;1.20;;;0.90;;
12861;SDS011;6499;66.348;14.134;2023-07-02T11:56:57;0.97;;;0.93;;
12861;SDS011;6499;66.348;14.134;2023-07-02T11:59:23;0.80;;;0.80;;
12861;SDS011;6499;66.348;14.134;2023-07-02T12:01:50;0.83;;;0.70;;
12861;SDS011;6499;66.348;14.134;2023-07-02T12:04:16;0.90;;;0.90;;
12861;SDS011;6499;66.348;14.134;2023-07-02T12:06:43;2.07;;;0.80;;
12861;SDS011;6499;66.348;14.134;2023-07-02T12:09:11;1.10;;;1.00;;
12861;SDS011;6499;66.348;14.134;2023-07-02T12:11:38;0.87;;;0.77;;
12861;SDS011;6499;66.348;14.134;2023-07-02T12:14:05;1.20;;;1.00;;
12861;SDS011;6499;66.348;14.134;2023-07-02T12:16:31;0.83;;;0.80;;
12861;SDS011;6499;66.348;14.134;2023-07-02T12:18:58;1.13;;;0.93;;
12861;SDS011;6499;66.348;14.134;2023-07-02T12:21:24;1.57;;;0.90;;
12861;SDS011;6499;66.348;14.134;2023-07-02T12:23:51;1.37;;;0.90;;
12861;SDS011;6499;66.348;14.134;2023-07-02T12:26:19;1.43;;;0.90;;
12861;SDS011;6499;66.348;14.134;2023-07-02T12:28:45;0.80;;;0.80;;
12861;SDS011;6499;66.348;14.134;2023-07-02T12:31:12;1.37;;;1.00;;
12861;SDS011;6499;66.348;14.134;2023-07-02T12:33:39;1.07;;;1.07;;
12861;SDS011;6499;66.348;14.134;2023-07-02T12:36:05;1.57;;;0.90;;
12861;SDS011;6499;66.348;14.134;2023-07-02T12:38:32;2.80;;;0.87;;
12861;SDS011;6499;66.348;14.134;2023-07-02T12:40:58;0.80;;;0.70;;
12861;SDS011;6499;66.348;14.134;2023-07-02T12:43:26;0.80;;;0.80;;
12861;SDS011;6499;66.348;14.134;2023-07-02T12:45:53;0.87;;;0.80;;
12861;SDS011;6499;66.348;14.134;2023-07-02T12:48:19;1.10;;;0.77;;
12861;SDS011;6499;66.348;14.134;2023-07-02T12:50:55;0.80;;;0.80;;
12861;SDS011;6499;66.348;14.134;2023-07-02T12:53:22;1.30;;;0.80;;
12861;SDS011;6499;66.348;14.134;2023-07-02T12:55:48;0.90;;;0.90;;
12861;SDS011;6499;66.348;14.134;2023-07-02T12:58:15;1.13;;;0.93;;
12861;SDS011;6499;66.348;14.134;2023-07-02T13:00:43;2.47;;;0.93;;
12861;SDS011;6499;66.348;14.134;2023-07-02T13:03:10;1.63;;;0.90;;
12861;SDS011;6499;66.348;14.134;2023-07-02T13:05:37;0.80;;;0.80;;
12861;SDS011;6499;66.348;14.134;2023-07-02T13:08:04;0.70;;;0.60;;
12861;SDS011;6499;66.348;14.134;2023-07-02T13:10:30;0.80;;;0.80;;
12861;SDS011;6499;66.348;14.134;2023-07-02T13:12:58;0.70;;;0.70;;
12861;SDS011;6499;66.348;14.134;2023-07-02T13:15:25;0.73;;;0.73;;
12861;SDS011;6499;66.348;14.134;2023-07-02T13:17:52;0.80;;;0.70;;
12861;SDS011;6499;66.348;14.134;2023-07-02T13:20:19;2.93;;;0.70;;
12861;SDS011;6499;66.348;14.134;2023-07-02T13:22:45;1.53;;;0.70;;
12861;SDS011;6499;66.348;14.134;2023-07-02T13:25:12;0.80;;;0.80;;
12861;SDS011;6499;66.348;14.134;2023-07-02T13:27:39;1.37;;;0.80;;
12861;SDS011;6499;66.348;14.134;2023-07-02T13:30:06;0.90;;;0.70;;
12861;SDS011;6499;66.348;14.134;2023-07-02T13:32:33;0.70;;;0.70;;
12861;SDS011;6499;66.348;14.134;2023-07-02T13:35:01;0.93;;;0.73;;
12861;SDS011;6499;66.348;14.134;2023-07-02T13:37:27;1.53;;;0.63;;
12861;SDS011;6499;66.348;14.134;2023-07-02T13:39:54;1.30;;;0.60;;
12861;SDS011;6499;66.348;14.134;2023-07-02T13:42:20;1.00;;;0.60;;
12861;SDS011;6499;66.348;14.134;2023-07-02T13:44:47;1.40;;;0.73;;
12861;SDS011;6499;66.348;14.134;2023-07-02T13:47:14;1.50;;;0.67;;
12861;SDS011;6499;66.348;14.134;2023-07-02T13:49:40;2.77;;;0.80;;
12861;SDS011;6499;66.348;14.134;2023-07-02T13:52:08;1.63;;;0.80;;
12861;SDS011;6499;66.348;14.134;2023-07-02T13:54:35;1.53;;;0.70;;
12861;SDS011;6499;66.348;14.134;2023-07-02T13:57:02;1.27;;;0.70;;
12861;SDS011;6499;66.348;14.134;2023-07-02T13:59:30;0.77;;;0.77;;
12861;SDS011;6499;66.348;14.134;2023-07-02T14:01:57;1.43;;;0.60;;
12861;SDS011;6499;66.348;14.134;2023-07-02T14:04:23;0.70;;;0.70;;
12861;SDS011;6499;66.348;14.134;2023-07-02T14:06:50;1.10;;;0.80;;
12861;SDS011;6499;66.348;14.134;2023-07-02T14:09:16;1.00;;;0.87;;
12861;SDS011;6499;66.348;14.134;2023-07-02T14:11:43;0.83;;;0.60;;
12861;SDS011;6499;66.348;14.134;2023-07-02T14:14:10;0.70;;;0.70;;
12861;SDS011;6499;66.348;14.134;2023-07-02T14:16:38;1.13;;;0.80;;
12861;SDS011;6499;66.348;14.134;2023-07-02T14:19:06;0.77;;;0.70;;
12861;SDS011;6499;66.348;14.134;2023-07-02T14:21:32;0.70;;;0.70;;
12861;SDS011;6499;66.348;14.134;2023-07-02T14:23:59;1.17;;;0.60;;
12861;SDS011;6499;66.348;14.134;2023-07-02T14:26:25;0.90;;;0.77;;
12861;SDS011;6499;66.348;14.134;2023-07-02T14:28:52;0.73;;;0.60;;
12861;SDS011;6499;66.348;14.134;2023-07-02T14:31:20;0.67;;;0.67;;
12861;SDS011;6499;66.348;14.134;2023-07-02T14:33:48;0.70;;;0.70;;
12861;SDS011;6499;66.348;14.134;2023-07-02T14:36:14;2.40;;;0.80;;
12861;SDS011;6499;66.348;14.134;2023-07-02T14:38:41;0.70;;;0.70;;
12861;SDS011;6499;66.348;14.134;2023-07-02T14:41:07;0.60;;;0.60;;
12861;SDS011;6499;66.348;14.134;2023-07-02T14:43:33;1.03;;;0.60;;
12861;SDS011;6499;66.348;14.134;2023-07-02T14:46:02;0.80;;;0.70;;
12861;SDS011;6499;66.348;14.134;2023-07-02T14:48:28;0.60;;;0.60;;